createdAt,value
2023-03-04T00:00:46.250Z,24.23
2023-03-04T00:01:50.491Z,34.63
2023-03-04T00:02:53.040Z,23.17
2023-03-04T00:03:55.575Z,23.30
2023-03-04T00:04:58.065Z,24.40
2023-03-04T00:06:00.567Z,22.60
2023-03-04T00:07:03.150Z,22.85
2023-03-04T00:08:05.667Z,24.98
2023-03-04T00:09:08.201Z,31.83
2023-03-04T00:10:11.636Z,22.35
2023-03-04T00:11:17.071Z,28.92
2023-03-04T00:12:19.845Z,25.70
2023-03-04T00:13:22.540Z,23.83
2023-03-04T00:14:25.255Z,26.25
2023-03-04T00:15:27.796Z,22.15
2023-03-04T00:16:30.290Z,23.88
2023-03-04T00:17:32.861Z,22.08
2023-03-04T00:18:35.414Z,27.38
2023-03-04T00:19:38.054Z,21.80
2023-03-04T00:20:40.574Z,26.38
2023-03-04T00:21:43.222Z,23.42
2023-03-04T00:22:45.653Z,23.40
2023-03-04T00:23:48.781Z,24.02
2023-03-04T00:24:51.344Z,26.33
2023-03-04T00:25:53.831Z,26.23
2023-03-04T00:26:56.374Z,22.17
2023-03-04T00:27:59.037Z,26.58
2023-03-04T00:29:02.033Z,27.30
2023-03-04T00:30:06.322Z,28.42
2023-03-04T00:31:09.457Z,25.40
2023-03-04T00:32:12.898Z,26.80
2023-03-04T00:33:15.668Z,27.92
2023-03-04T00:34:18.446Z,24.58
2023-03-04T00:35:21.069Z,24.25
2023-03-04T00:36:23.733Z,26.50
2023-03-04T00:37:26.446Z,26.23
2023-03-04T00:38:29.021Z,30.80
2023-03-04T00:39:31.610Z,26.50
2023-03-04T00:40:34.113Z,32.90
2023-03-04T00:41:36.562Z,26.73
2023-03-04T00:42:39.080Z,24.38
2023-03-04T00:43:41.616Z,30.88
2023-03-04T00:44:44.051Z,29.45
2023-03-04T00:45:46.639Z,27.52
2023-03-04T00:46:49.949Z,29.92
2023-03-04T00:47:52.407Z,32.35
2023-03-04T00:48:54.884Z,30.95
2023-03-04T00:49:57.406Z,33.13
2023-03-04T00:50:59.839Z,30.88
2023-03-04T00:52:02.322Z,31.02
2023-03-04T00:53:05.584Z,31.40
2023-03-04T00:54:08.063Z,33.03
2023-03-04T00:55:10.807Z,33.22
2023-03-04T00:56:13.634Z,31.95
2023-03-04T00:57:16.184Z,31.40
2023-03-04T00:58:19.027Z,32.95
2023-03-04T00:59:21.510Z,31.88
2023-03-04T01:00:24.073Z,31.60
2023-03-04T01:01:26.802Z,35.53
2023-03-04T01:02:29.398Z,35.08
2023-03-04T01:03:32.723Z,31.50
2023-03-04T01:04:35.118Z,36.13
2023-03-04T01:05:37.655Z,31.95
2023-03-04T01:06:40.241Z,28.92
2023-03-04T01:07:42.733Z,32.60
2023-03-04T01:08:45.320Z,33.97
2023-03-04T01:09:47.828Z,39.38
2023-03-04T01:10:50.986Z,26.95
2023-03-04T01:11:53.829Z,29.05
2023-03-04T01:12:56.786Z,34.25
2023-03-04T01:13:59.261Z,34.30
2023-03-04T01:15:02.360Z,37.10
2023-03-04T01:16:05.192Z,28.85
2023-03-04T01:17:07.819Z,41.25
2023-03-04T01:18:10.651Z,33.85
2023-03-04T01:19:13.166Z,33.80
2023-03-04T01:20:15.791Z,32.85
2023-03-04T01:21:18.366Z,33.45
2023-03-04T01:22:20.865Z,38.45
2023-03-04T01:23:23.857Z,34.63
2023-03-04T01:24:26.481Z,33.45
2023-03-04T01:25:28.989Z,32.65
2023-03-04T01:26:31.500Z,30.75
2023-03-04T01:27:33.968Z,31.90
2023-03-04T01:28:36.536Z,31.55
2023-03-04T01:29:41.859Z,32.85
2023-03-04T01:30:44.438Z,26.75
2023-03-04T01:31:47.014Z,27.08
2023-03-04T01:32:49.747Z,28.98
2023-03-04T01:33:52.561Z,28.50
2023-03-04T01:34:55.073Z,26.02
2023-03-04T01:35:58.252Z,27.98
2023-03-04T01:37:03.735Z,33.03
2023-03-04T01:38:06.369Z,34.05
2023-03-04T01:39:08.973Z,31.73
2023-03-04T01:40:12.129Z,30.15
2023-03-04T01:41:14.834Z,30.88
2023-03-04T01:42:21.764Z,27.40
2023-03-04T01:43:28.666Z,26.50
2023-03-04T01:44:31.417Z,28.27
2023-03-04T01:45:34.556Z,25.27
2023-03-04T01:46:37.789Z,23.98
2023-03-04T01:47:40.346Z,31.77
2023-03-04T01:48:43.133Z,26.45
2023-03-04T01:49:49.003Z,27.63
2023-03-04T01:50:52.580Z,22.90
2023-03-04T01:51:58.368Z,26.83
2023-03-04T01:53:01.696Z,24.88
2023-03-04T01:54:04.394Z,27.98
2023-03-04T01:55:16.622Z,26.50
2023-03-04T01:56:39.826Z,23.17
2023-03-04T01:57:42.362Z,27.10
2023-03-04T01:58:44.990Z,27.95
2023-03-04T01:59:48.630Z,28.67
2023-03-04T02:00:51.080Z,27.17
2023-03-04T02:01:57.586Z,29.17
2023-03-04T02:03:07.885Z,26.25
2023-03-04T02:04:11.178Z,29.70
2023-03-04T02:05:14.185Z,34.63
2023-03-04T02:06:16.747Z,31.05
2023-03-04T02:07:19.313Z,25.60
2023-03-04T02:08:23.809Z,28.00
2023-03-04T02:09:26.852Z,28.35
2023-03-04T02:10:30.701Z,27.10
2023-03-04T02:11:35.830Z,23.00
2023-03-04T02:12:38.798Z,28.48
2023-03-04T02:13:41.336Z,24.17
2023-03-04T02:14:44.174Z,26.55
2023-03-04T02:15:47.456Z,27.67
2023-03-04T02:16:51.138Z,30.13
2023-03-04T02:17:53.655Z,25.92
2023-03-04T02:18:56.618Z,27.08
2023-03-04T02:20:45.540Z,25.80
2023-03-04T02:21:48.102Z,27.45
2023-03-04T02:23:06.259Z,24.95
2023-03-04T02:24:20.315Z,25.55
2023-03-04T02:25:26.749Z,27.63
2023-03-04T02:26:31.671Z,25.67
2023-03-04T02:27:35.254Z,26.92
2023-03-04T02:28:37.835Z,28.55
2023-03-04T02:29:40.409Z,29.90
2023-03-04T02:30:43.516Z,29.10
2023-03-04T02:31:48.648Z,28.83
2023-03-04T02:32:52.214Z,31.08
2023-03-04T02:33:57.906Z,31.60
2023-03-04T02:35:02.773Z,28.02
2023-03-04T02:36:05.560Z,30.98
2023-03-04T02:37:11.006Z,32.58
2023-03-04T02:38:13.665Z,30.05
2023-03-04T02:39:28.737Z,27.33
2023-03-04T02:40:33.866Z,30.02
2023-03-04T02:41:36.792Z,29.98
2023-03-04T02:42:39.454Z,29.23
2023-03-04T02:43:41.968Z,25.20
2023-03-04T02:44:47.760Z,28.33
2023-03-04T02:45:51.260Z,31.58
2023-03-04T02:46:54.536Z,30.08
2023-03-04T02:47:57.146Z,33.90
2023-03-04T02:48:59.676Z,27.70
2023-03-04T02:50:04.157Z,30.05
2023-03-04T02:51:06.692Z,26.30
2023-03-04T02:52:10.387Z,29.00
2023-03-04T02:53:13.221Z,27.48
2023-03-04T02:54:20.904Z,27.92
2023-03-04T02:55:23.477Z,29.17
2023-03-04T02:56:26.195Z,29.15
2023-03-04T02:57:29.439Z,31.88
2023-03-04T02:58:31.943Z,32.05
2023-03-04T02:59:35.632Z,28.67
2023-03-04T03:00:39.323Z,23.88
2023-03-04T03:01:42.784Z,22.42
2023-03-04T03:02:45.484Z,27.52
2023-03-04T03:03:48.808Z,27.67
2023-03-04T03:04:51.459Z,31.67
2023-03-04T03:05:55.724Z,27.88
2023-03-04T03:06:58.557Z,28.70
2023-03-04T03:08:02.041Z,31.73
2023-03-04T03:09:04.986Z,27.90
2023-03-04T03:10:07.726Z,33.38
2023-03-04T03:11:10.459Z,29.05
2023-03-04T03:12:13.368Z,28.77
2023-03-04T03:13:15.986Z,27.13
2023-03-04T03:14:18.546Z,29.05
2023-03-04T03:15:21.560Z,29.45
2023-03-04T03:16:24.706Z,36.83
2023-03-04T03:17:27.327Z,27.00
2023-03-04T03:18:29.842Z,31.45
2023-03-04T03:19:32.445Z,25.58
2023-03-04T03:20:37.486Z,27.63
2023-03-04T03:21:39.960Z,28.20
2023-03-04T03:22:43.222Z,28.98
2023-03-04T03:23:45.941Z,26.60
2023-03-04T03:24:48.851Z,28.00
2023-03-04T03:25:51.534Z,29.10
2023-03-04T03:26:54.080Z,25.23
2023-03-04T03:27:56.908Z,33.80
2023-03-04T03:28:59.474Z,25.42
2023-03-04T03:30:04.861Z,30.55
2023-03-04T03:31:07.369Z,28.77
2023-03-04T03:32:10.070Z,28.10
2023-03-04T03:33:12.661Z,27.95
2023-03-04T03:34:15.540Z,26.90
2023-03-04T03:35:18.282Z,27.55
2023-03-04T03:36:20.831Z,32.15
2023-03-04T03:37:23.457Z,29.52
2023-03-04T03:38:26.492Z,31.00
2023-03-04T03:39:29.137Z,27.33
2023-03-04T03:40:31.802Z,25.42
2023-03-04T03:41:34.246Z,24.42
2023-03-04T03:42:37.091Z,27.55
2023-03-04T03:43:39.502Z,27.85
2023-03-04T03:44:42.128Z,31.02
2023-03-04T03:45:44.700Z,29.95
2023-03-04T03:46:47.283Z,26.23
2023-03-04T03:47:49.768Z,27.40
2023-03-04T03:48:52.319Z,28.30
2023-03-04T03:49:55.008Z,24.27
2023-03-04T03:50:57.793Z,23.70
2023-03-04T03:52:00.401Z,25.70
2023-03-04T03:53:03.451Z,28.17
2023-03-04T03:54:06.050Z,24.85
2023-03-04T03:55:09.140Z,26.58
2023-03-04T03:56:11.651Z,24.63
2023-03-04T03:57:14.177Z,24.55
2023-03-04T03:58:16.843Z,23.45
2023-03-04T03:59:20.008Z,27.50
2023-03-04T04:00:22.760Z,23.42
2023-03-04T04:01:25.783Z,23.98
2023-03-04T04:02:28.246Z,22.02
2023-03-04T04:03:31.206Z,22.42
2023-03-04T04:04:33.830Z,23.90
2023-03-04T04:05:36.430Z,23.73
2023-03-04T04:06:38.912Z,19.50
2023-03-04T04:07:41.957Z,20.13
2023-03-04T04:08:44.459Z,20.85
2023-03-04T04:09:48.151Z,25.70
2023-03-04T04:10:50.618Z,22.38
2023-03-04T04:11:53.096Z,26.83
2023-03-04T04:12:55.522Z,23.90
2023-03-04T04:13:58.118Z,20.73
2023-03-04T04:15:00.833Z,22.60
2023-03-04T04:16:03.318Z,19.33
2023-03-04T04:17:05.733Z,23.48
2023-03-04T04:18:08.268Z,24.85
2023-03-04T04:19:17.930Z,22.10
2023-03-04T04:20:20.469Z,19.38
2023-03-04T04:21:23.304Z,23.63
2023-03-04T04:22:25.802Z,19.20
2023-03-04T04:23:28.316Z,19.75
2023-03-04T04:24:30.764Z,19.17
2023-03-04T04:25:33.303Z,21.10
2023-03-04T04:26:35.848Z,19.55
2023-03-04T04:27:38.314Z,27.92
2023-03-04T04:28:40.781Z,26.48
2023-03-04T04:29:43.248Z,25.60
2023-03-04T04:30:45.736Z,21.38
2023-03-04T04:31:48.194Z,20.55
2023-03-04T04:32:50.753Z,24.10
2023-03-04T04:33:53.302Z,20.92
2023-03-04T04:34:55.911Z,19.50
2023-03-04T04:35:58.523Z,23.45
2023-03-04T04:37:01.153Z,22.50
2023-03-04T04:38:03.810Z,19.95
2023-03-04T04:39:06.288Z,17.55
2023-03-04T04:40:09.753Z,16.10
2023-03-04T04:41:24.880Z,23.58
2023-03-04T04:42:27.926Z,17.48
2023-03-04T04:43:30.383Z,22.67
2023-03-04T04:44:32.979Z,21.42
2023-03-04T04:45:35.588Z,25.95
2023-03-04T04:46:38.777Z,21.50
2023-03-04T04:47:41.218Z,19.15
2023-03-04T04:48:43.818Z,17.33
2023-03-04T04:49:46.305Z,22.88
2023-03-04T04:50:55.291Z,22.10
2023-03-04T04:51:57.891Z,19.90
2023-03-04T04:53:00.746Z,19.63
2023-03-04T04:54:04.269Z,17.23
2023-03-04T04:55:07.119Z,19.95
2023-03-04T04:56:15.273Z,20.95
2023-03-04T04:57:17.716Z,23.70
2023-03-04T04:58:20.280Z,24.67
2023-03-04T04:59:22.830Z,20.55
2023-03-04T05:00:25.484Z,20.52
2023-03-04T05:01:28.777Z,20.88
2023-03-04T05:02:31.437Z,19.90
2023-03-04T05:03:35.390Z,20.27
2023-03-04T05:04:37.971Z,24.30
2023-03-04T05:05:40.543Z,18.90
2023-03-04T05:06:43.304Z,23.73
2023-03-04T05:07:45.853Z,18.25
2023-03-04T05:08:48.742Z,20.67
2023-03-04T05:09:51.214Z,19.33
2023-03-04T05:10:54.122Z,18.48
2023-03-04T05:11:56.589Z,17.35
2023-03-04T05:12:59.020Z,23.92
2023-03-04T05:14:01.543Z,21.00
2023-03-04T05:15:04.238Z,20.08
2023-03-04T05:16:07.376Z,19.00
2023-03-04T05:17:09.886Z,24.55
2023-03-04T05:18:12.426Z,18.25
2023-03-04T05:19:14.929Z,19.98
2023-03-04T05:20:17.558Z,24.30
2023-03-04T05:21:20.238Z,20.05
2023-03-04T05:22:22.898Z,19.42
2023-03-04T05:23:27.191Z,22.40
2023-03-04T05:24:29.741Z,20.08
2023-03-04T05:25:32.287Z,18.98
2023-03-04T05:26:35.318Z,21.15
2023-03-04T05:27:37.937Z,17.67
2023-03-04T05:28:40.634Z,14.90
2023-03-04T05:29:44.837Z,20.20
2023-03-04T05:30:48.199Z,18.23
2023-03-04T05:31:51.114Z,19.35
2023-03-04T05:32:53.601Z,21.55
2023-03-04T05:33:56.200Z,22.25
2023-03-04T05:34:58.687Z,18.88
2023-03-04T05:36:02.303Z,19.15
2023-03-04T05:37:04.784Z,20.83
2023-03-04T05:38:08.939Z,20.58
2023-03-04T05:39:11.871Z,19.80
2023-03-04T05:40:14.413Z,18.83
2023-03-04T05:41:19.056Z,18.42
2023-03-04T05:42:21.744Z,20.50
2023-03-04T05:43:24.259Z,20.48
2023-03-04T05:44:26.892Z,24.08
2023-03-04T05:45:29.737Z,18.45
2023-03-04T05:46:33.676Z,20.40
2023-03-04T05:47:36.449Z,18.50
2023-03-04T05:48:38.972Z,19.73
2023-03-04T05:49:41.881Z,23.98
2023-03-04T05:50:44.518Z,16.80
2023-03-04T05:51:47.051Z,19.63
2023-03-04T05:52:50.256Z,25.17
2023-03-04T05:53:52.843Z,17.98
2023-03-04T05:54:55.309Z,19.17
2023-03-04T05:56:00.060Z,23.45
2023-03-04T05:57:02.783Z,16.98
2023-03-04T05:58:05.282Z,16.75
2023-03-04T05:59:07.757Z,18.05
2023-03-04T06:00:13.173Z,20.58
2023-03-04T06:01:16.646Z,19.25
2023-03-04T06:02:24.709Z,15.85
2023-03-04T06:03:27.416Z,18.73
2023-03-04T06:04:29.878Z,20.92
2023-03-04T06:05:32.336Z,14.13
2023-03-04T06:06:34.847Z,17.20
2023-03-04T06:07:37.371Z,17.10
2023-03-04T06:08:40.005Z,20.63
2023-03-04T06:09:45.261Z,22.02
2023-03-04T06:10:47.792Z,19.92
2023-03-04T06:11:50.269Z,21.80
2023-03-04T06:12:52.753Z,16.17
2023-03-04T06:13:55.341Z,18.42
2023-03-04T06:14:57.848Z,12.75
2023-03-04T06:16:01.158Z,21.58
2023-03-04T06:17:03.928Z,17.13
2023-03-04T06:18:07.882Z,13.88
2023-03-04T06:19:10.460Z,16.33
2023-03-04T06:20:13.308Z,19.05
2023-03-04T06:21:15.852Z,17.00
2023-03-04T06:22:18.363Z,15.80
2023-03-04T06:23:20.948Z,18.63
2023-03-04T06:24:23.513Z,23.33
2023-03-04T06:25:26.434Z,15.90
2023-03-04T06:26:28.947Z,18.55
2023-03-04T06:27:31.526Z,14.32
2023-03-04T06:28:34.142Z,14.93
2023-03-04T06:29:36.666Z,12.43
2023-03-04T06:30:39.225Z,28.23
2023-03-04T06:31:42.053Z,25.50
2023-03-04T06:32:44.808Z,28.33
2023-03-04T06:33:47.433Z,19.58
2023-03-04T06:34:50.034Z,19.85
2023-03-04T06:35:56.986Z,15.73
2023-03-04T06:36:59.930Z,15.85
2023-03-04T06:38:02.480Z,18.83
2023-03-04T06:39:08.973Z,17.42
2023-03-04T06:40:12.342Z,19.30
2023-03-04T06:41:14.866Z,16.77
2023-03-04T06:42:17.459Z,18.58
2023-03-04T06:43:20.433Z,17.55
2023-03-04T06:44:22.847Z,18.52
2023-03-04T06:45:25.493Z,18.27
2023-03-04T06:46:30.399Z,17.98
2023-03-04T06:47:33.321Z,17.08
2023-03-04T06:48:36.064Z,15.20
2023-03-04T06:49:38.564Z,17.33
2023-03-04T06:50:41.239Z,17.25
2023-03-04T06:51:43.720Z,18.50
2023-03-04T06:52:46.181Z,20.13
2023-03-04T06:53:48.729Z,22.27
2023-03-04T06:54:51.541Z,12.75
2023-03-04T06:55:54.174Z,15.05
2023-03-04T06:56:56.754Z,16.73
2023-03-04T06:57:59.345Z,22.33
2023-03-04T06:59:01.941Z,17.05
2023-03-04T07:00:04.862Z,17.17
2023-03-04T07:01:24.584Z,16.83
2023-03-04T07:02:27.196Z,20.75
2023-03-04T07:03:29.707Z,21.67
2023-03-04T07:04:32.348Z,19.42
2023-03-04T07:05:34.825Z,16.05
2023-03-04T07:06:37.266Z,14.82
2023-03-04T07:07:39.808Z,17.65
2023-03-04T07:08:42.714Z,16.85
2023-03-04T07:09:45.212Z,20.30
2023-03-04T07:10:47.738Z,14.57
2023-03-04T07:11:50.350Z,17.52
2023-03-04T07:12:52.985Z,15.10
2023-03-04T07:13:55.656Z,16.85
2023-03-04T07:14:58.158Z,14.45
2023-03-04T07:16:02.245Z,13.35
2023-03-04T07:17:04.786Z,20.65
2023-03-04T07:18:07.497Z,18.85
2023-03-04T07:19:10.061Z,21.08
2023-03-04T07:20:12.910Z,16.00
2023-03-04T07:21:16.555Z,17.45
2023-03-04T07:22:19.034Z,16.67
2023-03-04T07:23:21.571Z,18.90
2023-03-04T07:24:24.026Z,17.90
2023-03-04T07:25:27.004Z,21.52
2023-03-04T07:26:29.728Z,18.90
2023-03-04T07:27:32.400Z,18.63
2023-03-04T07:28:35.758Z,16.73
2023-03-04T07:29:38.219Z,13.25
2023-03-04T07:30:40.754Z,15.90
2023-03-04T07:31:43.331Z,18.13
2023-03-04T07:32:45.914Z,15.35
2023-03-04T07:33:48.517Z,17.23
2023-03-04T07:34:51.773Z,16.75
2023-03-04T07:36:00.673Z,15.73
2023-03-04T07:37:03.573Z,18.30
2023-03-04T07:38:06.083Z,18.25
2023-03-04T07:39:08.818Z,13.55
2023-03-04T07:40:12.017Z,19.48
2023-03-04T07:41:15.041Z,17.33
2023-03-04T07:42:17.544Z,16.00
2023-03-04T07:43:28.066Z,17.95
2023-03-04T07:44:30.717Z,13.85
2023-03-04T07:45:33.558Z,14.85
2023-03-04T07:46:36.065Z,17.13
2023-03-04T07:47:39.916Z,11.82
2023-03-04T07:48:42.549Z,18.30
2023-03-04T07:49:44.994Z,19.33
2023-03-04T07:50:47.457Z,18.00
2023-03-04T07:51:50.137Z,15.43
2023-03-04T07:52:53.466Z,15.38
2023-03-04T07:54:00.529Z,13.68
2023-03-04T07:55:03.001Z,21.45
2023-03-04T07:56:07.644Z,16.58
2023-03-04T07:57:10.189Z,11.73
2023-03-04T07:58:12.679Z,14.05
2023-03-04T07:59:15.168Z,19.10
2023-03-04T08:00:18.189Z,11.20
2023-03-04T08:01:34.815Z,18.23
2023-03-04T08:02:37.508Z,16.95
2023-03-04T08:03:40.604Z,15.73
2023-03-04T08:04:43.059Z,11.23
2023-03-04T08:05:45.630Z,14.98
2023-03-04T08:06:49.065Z,11.50
2023-03-04T08:07:51.730Z,18.25
2023-03-04T08:08:59.739Z,13.68
2023-03-04T08:10:02.262Z,12.80
2023-03-04T08:11:06.763Z,16.23
2023-03-04T08:12:09.392Z,16.55
2023-03-04T08:13:11.868Z,14.90
2023-03-04T08:14:14.957Z,13.35
2023-03-04T08:15:17.631Z,15.57
2023-03-04T08:16:21.551Z,14.32
2023-03-04T08:17:24.007Z,14.60
2023-03-04T08:18:27.304Z,13.63
2023-03-04T08:19:30.069Z,13.15
2023-03-04T08:20:32.575Z,16.17
2023-03-04T08:21:35.585Z,13.23
2023-03-04T08:22:38.006Z,18.13
2023-03-04T08:23:42.580Z,10.63
2023-03-04T08:24:45.298Z,15.40
2023-03-04T08:25:48.132Z,17.40
2023-03-04T08:26:51.408Z,10.68
2023-03-04T08:27:54.272Z,14.90
2023-03-04T08:28:57.798Z,14.50
2023-03-04T08:30:00.375Z,14.88
2023-03-04T08:31:03.181Z,12.23
2023-03-04T08:32:05.963Z,13.68
2023-03-04T08:33:09.342Z,11.13
2023-03-04T08:34:13.594Z,17.15
2023-03-04T08:35:16.273Z,13.65
2023-03-04T08:36:19.186Z,16.80
2023-03-04T08:37:21.614Z,17.45
2023-03-04T08:38:24.494Z,16.90
2023-03-04T08:39:27.028Z,11.95
2023-03-04T08:40:31.150Z,11.65
2023-03-04T08:41:33.982Z,14.55
2023-03-04T08:42:36.548Z,14.63
2023-03-04T08:43:39.414Z,11.23
2023-03-04T08:44:41.972Z,10.30
2023-03-04T08:45:44.438Z,13.70
2023-03-04T08:46:46.943Z,15.40
2023-03-04T08:47:49.920Z,12.90
2023-03-04T08:48:52.511Z,8.88
2023-03-04T08:49:54.930Z,19.70
2023-03-04T08:50:57.445Z,15.25
2023-03-04T08:51:59.868Z,14.80
2023-03-04T08:53:02.367Z,15.95
2023-03-04T08:54:05.605Z,11.18
2023-03-04T08:55:08.537Z,14.77
2023-03-04T08:56:11.922Z,15.02
2023-03-04T08:57:14.524Z,14.70
2023-03-04T08:58:16.992Z,17.13
2023-03-04T08:59:19.521Z,11.55
2023-03-04T09:00:23.872Z,12.55
2023-03-04T09:01:26.785Z,10.50
2023-03-04T09:02:29.268Z,14.85
2023-03-04T09:03:31.895Z,12.88
2023-03-04T09:04:34.711Z,11.73
2023-03-04T09:05:37.450Z,11.77
2023-03-04T09:06:40.833Z,12.02
2023-03-04T09:07:43.342Z,11.85
2023-03-04T09:08:46.030Z,11.23
2023-03-04T09:09:48.587Z,8.63
2023-03-04T09:10:54.166Z,13.52
2023-03-04T09:11:56.791Z,11.98
2023-03-04T09:12:59.644Z,11.82
2023-03-04T09:14:02.184Z,15.48
2023-03-04T09:15:13.984Z,10.48
2023-03-04T09:16:17.249Z,12.23
2023-03-04T09:17:19.744Z,8.80
2023-03-04T09:18:24.123Z,9.65
2023-03-04T09:19:27.987Z,13.30
2023-03-04T09:20:31.627Z,11.27
2023-03-04T09:21:34.142Z,11.45
2023-03-04T09:22:38.222Z,16.35
2023-03-04T09:23:40.915Z,14.48
2023-03-04T09:24:43.593Z,12.13
2023-03-04T09:25:47.576Z,11.48
2023-03-04T09:26:55.120Z,14.15
2023-03-04T09:27:57.727Z,15.63
2023-03-04T09:29:02.119Z,14.15
2023-03-04T09:30:04.950Z,14.82
2023-03-04T09:31:12.895Z,12.55
2023-03-04T09:32:15.589Z,11.75
2023-03-04T09:33:18.225Z,12.90
2023-03-04T09:34:20.726Z,14.88
2023-03-04T09:35:23.544Z,12.25
2023-03-04T09:36:26.258Z,11.77
2023-03-04T09:37:28.765Z,19.50
2023-03-04T09:38:31.276Z,12.27
2023-03-04T09:39:33.891Z,12.73
2023-03-04T09:40:39.087Z,12.75
2023-03-04T09:41:45.308Z,12.73
2023-03-04T09:42:52.187Z,14.18
2023-03-04T09:43:55.054Z,13.57
2023-03-04T09:44:58.091Z,13.52
2023-03-04T09:46:03.623Z,13.20
2023-03-04T09:47:11.931Z,13.65
2023-03-04T09:48:18.036Z,11.07
2023-03-04T09:49:21.744Z,20.20
2023-03-04T09:50:24.229Z,10.73
2023-03-04T09:51:41.776Z,15.35
2023-03-04T09:52:59.004Z,11.13
2023-03-04T09:54:23.311Z,16.73
2023-03-04T09:55:37.686Z,11.63
2023-03-04T09:56:42.130Z,16.60
2023-03-04T09:57:53.688Z,12.07
2023-03-04T09:59:02.243Z,8.55
2023-03-04T10:00:26.350Z,16.08
2023-03-04T10:01:36.638Z,13.07
2023-03-04T10:03:11.269Z,14.93
2023-03-04T10:04:19.479Z,17.90
2023-03-04T10:05:24.301Z,14.23
2023-03-04T10:06:27.988Z,20.45
2023-03-04T10:07:35.672Z,17.33
2023-03-04T10:08:50.846Z,13.50
2023-03-04T10:10:01.625Z,16.90
2023-03-04T10:12:15.644Z,14.00
2023-03-04T10:13:26.801Z,14.73
2023-03-04T10:14:40.611Z,15.93
2023-03-04T10:15:46.538Z,15.18
2023-03-04T10:16:53.523Z,19.65
2023-03-04T10:18:02.946Z,21.40
2023-03-04T10:19:14.305Z,16.85
2023-03-04T10:20:23.871Z,16.25
2023-03-04T10:21:35.155Z,18.17
2023-03-04T10:23:00.245Z,14.15
2023-03-04T10:24:14.907Z,18.63
2023-03-04T10:25:23.484Z,20.10
2023-03-04T10:26:30.373Z,14.93
2023-03-04T10:27:33.028Z,18.88
2023-03-04T10:28:35.891Z,17.98
2023-03-04T10:29:38.797Z,16.25
2023-03-04T10:30:55.959Z,16.48
2023-03-04T10:31:58.714Z,14.68
2023-03-04T10:33:16.950Z,15.45
2023-03-04T10:34:19.498Z,18.85
2023-03-04T10:35:23.578Z,17.52
2023-03-04T10:36:34.509Z,18.10
2023-03-04T10:37:49.187Z,21.45
2023-03-04T10:39:15.202Z,15.25
2023-03-04T10:40:24.189Z,15.82
2023-03-04T10:41:29.080Z,23.02
2023-03-04T10:42:37.624Z,17.67
2023-03-04T10:43:40.795Z,12.82
2023-03-04T10:44:51.313Z,18.30
2023-03-04T10:46:01.352Z,12.80
2023-03-04T10:47:10.354Z,15.00
2023-03-04T10:48:30.675Z,21.00
2023-03-04T10:49:33.174Z,15.75
2023-03-04T10:50:35.594Z,16.60
2023-03-04T10:51:51.929Z,13.25
2023-03-04T10:52:56.008Z,12.80
2023-03-04T10:54:04.826Z,11.80
2023-03-04T10:55:22.436Z,13.23
2023-03-04T10:56:41.092Z,14.57
2023-03-04T10:57:45.439Z,14.30
2023-03-04T10:58:48.075Z,14.82
2023-03-04T10:59:58.261Z,19.42
2023-03-04T11:01:06.902Z,17.90
2023-03-04T11:02:36.403Z,12.68
2023-03-04T11:03:39.027Z,15.85
2023-03-04T11:04:41.654Z,13.68
2023-03-04T11:05:44.412Z,15.95
2023-03-04T11:06:46.880Z,18.27
2023-03-04T11:07:57.848Z,19.02
2023-03-04T11:09:01.009Z,13.88
2023-03-04T11:10:21.472Z,17.83
2023-03-04T11:11:44.490Z,20.58
2023-03-04T11:12:59.163Z,16.95
2023-03-04T11:14:06.524Z,19.67
2023-03-04T11:15:20.604Z,14.82
2023-03-04T11:16:32.262Z,15.50
2023-03-04T11:17:44.536Z,17.08
2023-03-04T11:18:53.014Z,11.07
2023-03-04T11:20:20.693Z,17.77
2023-03-04T11:21:30.595Z,16.75
2023-03-04T11:22:33.177Z,13.10
2023-03-04T11:23:49.666Z,14.13
2023-03-04T11:24:57.882Z,13.55
2023-03-04T11:26:07.072Z,15.77
2023-03-04T11:27:20.971Z,13.95
2023-03-04T11:28:32.588Z,10.32
2023-03-04T11:29:45.988Z,13.10
2023-03-04T11:31:00.251Z,18.73
2023-03-04T11:32:29.154Z,11.57
2023-03-04T11:33:46.621Z,13.80
2023-03-04T11:34:52.345Z,11.90
2023-03-04T11:36:05.141Z,14.85
2023-03-04T11:37:19.493Z,12.48
2023-03-04T11:38:33.817Z,14.50
2023-03-04T11:39:44.701Z,17.70
2023-03-04T11:40:53.195Z,16.98
2023-03-04T11:42:03.527Z,15.82
2023-03-04T11:43:34.877Z,13.10
2023-03-04T11:44:37.339Z,11.20
2023-03-04T11:46:05.712Z,12.23
2023-03-04T11:47:41.431Z,15.43
2023-03-04T11:49:17.024Z,17.73
2023-03-04T11:50:23.877Z,12.93
2023-03-04T11:51:33.255Z,17.83
2023-03-04T11:52:50.183Z,12.52
2023-03-04T11:54:04.832Z,9.95
2023-03-04T11:55:11.747Z,14.50
2023-03-04T11:56:27.747Z,13.45
2023-03-04T11:57:51.504Z,11.73
2023-03-04T11:59:10.450Z,15.38
2023-03-04T12:00:16.738Z,15.45
2023-03-04T12:01:33.802Z,9.63
2023-03-04T12:03:18.417Z,15.60
2023-03-04T12:04:48.357Z,13.30
2023-03-04T12:06:06.238Z,16.02
2023-03-04T12:07:22.951Z,11.48
2023-03-04T12:08:36.818Z,11.13
2023-03-04T12:10:04.765Z,15.50
2023-03-04T12:11:16.360Z,11.90
2023-03-04T12:12:33.955Z,12.70
2023-03-04T12:13:40.975Z,17.25
2023-03-04T12:15:08.147Z,10.27
2023-03-04T12:16:39.821Z,12.88
2023-03-04T12:17:42.260Z,13.35
2023-03-04T12:18:56.503Z,11.63
2023-03-04T12:20:17.778Z,13.00
2023-03-04T12:21:49.434Z,9.55
2023-03-04T12:23:11.060Z,10.25
2023-03-04T12:24:31.461Z,10.25
2023-03-04T12:25:40.702Z,12.32
2023-03-04T12:26:46.303Z,13.13
2023-03-04T12:28:18.369Z,11.07
2023-03-04T12:29:39.483Z,15.27
2023-03-04T12:32:24.043Z,11.93
2023-03-04T12:34:14.105Z,11.90
2023-03-04T12:35:35.085Z,10.95
2023-03-04T12:36:43.700Z,10.60
2023-03-04T12:37:58.460Z,13.30
2023-03-04T12:39:21.824Z,13.40
2023-03-04T12:40:33.545Z,11.20
2023-03-04T12:41:50.990Z,16.30
2023-03-04T12:43:17.061Z,10.43
2023-03-04T12:44:20.995Z,13.23
2023-03-04T12:45:37.146Z,10.07
2023-03-04T12:47:08.841Z,11.02
2023-03-04T12:48:20.246Z,15.70
2023-03-04T12:49:56.090Z,8.68
2023-03-04T12:51:11.483Z,9.85
2023-03-04T12:52:38.242Z,10.88
2023-03-04T12:54:10.945Z,9.80
2023-03-04T12:55:16.858Z,11.63
2023-03-04T12:56:24.073Z,17.33
2023-03-04T12:57:31.589Z,11.55
2023-03-04T12:58:36.592Z,11.70
2023-03-04T12:59:50.094Z,12.23
2023-03-04T13:01:12.679Z,8.45
2023-03-04T13:02:33.714Z,12.70
2023-03-04T13:03:56.918Z,13.43
2023-03-04T13:05:14.454Z,10.43
2023-03-04T13:06:46.507Z,12.00
2023-03-04T13:07:58.924Z,16.63
2023-03-04T13:09:23.462Z,10.23
2023-03-04T13:10:26.090Z,9.23
2023-03-04T13:11:29.077Z,6.88
2023-03-04T13:12:47.468Z,4.07
2023-03-04T13:14:05.011Z,4.82
2023-03-04T13:15:07.487Z,4.05
2023-03-04T13:16:42.659Z,3.85
2023-03-04T13:17:58.170Z,4.55
2023-03-04T13:19:00.778Z,6.30
2023-03-04T13:20:20.062Z,5.85
2023-03-04T13:21:28.842Z,6.45
2023-03-04T13:22:43.516Z,7.35
2023-03-04T13:23:46.076Z,5.22
2023-03-04T13:24:52.434Z,8.52
2023-03-04T13:25:58.014Z,3.97
2023-03-04T13:27:00.533Z,3.97
2023-03-04T13:28:03.078Z,7.53
2023-03-04T13:29:32.157Z,9.70
2023-03-04T13:30:34.632Z,9.10
2023-03-04T13:32:01.482Z,8.43
2023-03-04T13:33:09.768Z,11.40
2023-03-04T13:34:42.287Z,12.85
2023-03-04T13:35:50.508Z,9.05
2023-03-04T13:36:56.095Z,14.65
2023-03-04T13:37:59.548Z,10.02
2023-03-04T13:39:17.218Z,9.65
2023-03-04T13:40:27.482Z,9.68
2023-03-04T13:42:00.477Z,10.98
2023-03-04T13:43:25.371Z,8.40
2023-03-04T13:44:46.141Z,7.72
2023-03-04T13:45:48.711Z,8.77
2023-03-04T13:46:51.345Z,7.90
2023-03-04T13:47:54.273Z,10.32
2023-03-04T13:48:56.719Z,10.57
2023-03-04T13:50:24.871Z,8.10
2023-03-04T13:51:30.637Z,10.25
2023-03-04T13:52:44.409Z,9.18
2023-03-04T13:53:58.270Z,10.02
2023-03-04T13:55:39.875Z,9.65
2023-03-04T13:56:47.618Z,11.38
2023-03-04T13:57:51.848Z,13.90
2023-03-04T13:59:09.477Z,14.30
2023-03-04T14:00:13.095Z,8.10
2023-03-04T14:01:27.685Z,8.00
2023-03-04T14:02:34.594Z,11.85
2023-03-04T14:03:37.382Z,13.90
2023-03-04T14:04:42.460Z,8.32
2023-03-04T14:05:44.989Z,8.77
2023-03-04T14:06:48.735Z,12.90
2023-03-04T14:07:51.284Z,10.55
2023-03-04T14:08:54.635Z,10.85
2023-03-04T14:10:04.830Z,15.85
2023-03-04T14:11:26.316Z,20.67
2023-03-04T14:12:30.856Z,12.30
2023-03-04T14:13:34.537Z,14.30
2023-03-04T14:14:55.254Z,12.77
2023-03-04T14:15:58.992Z,10.27
2023-03-04T14:17:04.673Z,9.27
2023-03-04T14:18:07.248Z,8.85